createdAt,value
2019-01-31T00:00:46.607Z,3.15
2019-01-31T00:06:14.268Z,3.14
2019-01-31T00:11:38.673Z,3.16
2019-01-31T00:23:34.512Z,3.14
2019-01-31T00:29:17.150Z,3.15
2019-01-31T00:35:02.694Z,3.13
2019-01-31T00:40:36.033Z,3.11
2019-01-31T00:46:11.146Z,3.12
2019-01-31T00:51:30.421Z,3.06
2019-01-31T00:57:02.864Z,2.98
2019-01-31T01:02:36.934Z,2.90
2019-01-31T01:08:20.329Z,2.83
2019-01-31T01:14:06.558Z,2.80
2019-01-31T01:20:08.340Z,2.81
2019-01-31T01:26:12.869Z,2.73
2019-01-31T01:31:47.624Z,2.65
2019-01-31T01:37:31.844Z,2.67
2019-01-31T01:43:16.005Z,2.60
2019-01-31T01:48:30.754Z,2.61
2019-01-31T01:54:07.962Z,2.55
2019-01-31T01:59:45.653Z,2.60
2019-01-31T02:05:32.681Z,2.60
2019-01-31T02:11:22.363Z,2.66
2019-01-31T02:16:51.688Z,2.65
2019-01-31T02:22:25.121Z,2.70
2019-01-31T02:28:16.450Z,2.83
2019-01-31T02:34:07.183Z,2.90
2019-01-31T02:39:43.075Z,2.87
2019-01-31T02:45:06.654Z,2.95
2019-01-31T02:51:08.123Z,2.97
2019-01-31T02:57:00.189Z,2.95
2019-01-31T03:02:26.950Z,2.94
2019-01-31T03:08:13.050Z,2.95
2019-01-31T03:13:54.542Z,2.95
2019-01-31T03:19:49.881Z,2.93
2019-01-31T03:25:35.649Z,2.96
2019-01-31T03:31:28.560Z,2.94
2019-01-31T03:37:15.750Z,2.91
2019-01-31T03:43:05.386Z,2.94
2019-01-31T03:48:50.176Z,2.92
2019-01-31T03:54:57.134Z,2.90
2019-01-31T04:00:26.712Z,2.78
2019-01-31T04:06:01.498Z,2.70
2019-01-31T04:11:08.675Z,2.70
2019-01-31T04:16:13.729Z,2.66
2019-01-31T04:21:27.899Z,2.65
2019-01-31T04:26:33.651Z,2.62
2019-01-31T04:31:38.924Z,2.62
2019-01-31T04:36:44.127Z,2.49
2019-01-31T04:41:49.436Z,2.45
2019-01-31T04:46:54.502Z,2.41
2019-01-31T04:52:00.689Z,2.36
2019-01-31T04:57:06.644Z,2.35
2019-01-31T05:02:17.822Z,2.38
2019-01-31T05:07:23.238Z,2.35
2019-01-31T05:12:28.657Z,2.25
2019-01-31T05:17:34.342Z,2.16
2019-01-31T05:22:39.583Z,2.15
2019-01-31T05:27:44.735Z,2.08
2019-01-31T05:32:50.276Z,2.05
2019-01-31T05:37:55.424Z,2.00
2019-01-31T05:43:00.966Z,1.97
2019-01-31T05:48:06.077Z,1.96
2019-01-31T05:53:12.030Z,2.02
2019-01-31T05:58:17.114Z,1.98
2019-01-31T06:03:22.480Z,1.96
2019-01-31T06:08:27.929Z,1.90
2019-01-31T06:13:33.113Z,1.86
2019-01-31T06:18:39.318Z,1.90
2019-01-31T06:23:44.631Z,1.84
2019-01-31T06:28:49.997Z,1.82
2019-01-31T06:33:55.514Z,1.78
2019-01-31T06:39:24.878Z,1.71
2019-01-31T06:44:30.254Z,1.66
2019-01-31T06:49:35.382Z,1.64
2019-01-31T06:54:40.966Z,1.59
2019-01-31T06:59:46.562Z,1.53
2019-01-31T07:04:52.446Z,1.56
2019-01-31T07:09:57.597Z,1.60
2019-01-31T07:15:03.274Z,1.64
2019-01-31T07:20:10.562Z,1.74
2019-01-31T07:25:18.380Z,1.71
2019-01-31T07:30:26.704Z,1.72
2019-01-31T07:35:30.861Z,1.73
2019-01-31T07:40:36.124Z,1.74
2019-01-31T07:45:41.416Z,1.75
2019-01-31T07:50:46.926Z,1.79
2019-01-31T07:55:51.971Z,1.82
2019-01-31T08:00:57.238Z,1.88
2019-01-31T08:06:02.276Z,1.87
2019-01-31T08:11:07.872Z,1.85
2019-01-31T08:16:13.003Z,1.91
2019-01-31T08:21:18.297Z,2.17
2019-01-31T08:26:23.467Z,2.26
2019-01-31T08:31:28.622Z,2.26
2019-01-31T08:36:34.486Z,2.18
2019-01-31T08:41:39.628Z,2.18
2019-01-31T08:46:44.742Z,2.19
2019-01-31T08:51:49.787Z,2.25
2019-01-31T08:56:55.262Z,2.29
2019-01-31T09:02:06.742Z,2.36
2019-01-31T09:07:11.851Z,2.44
2019-01-31T09:12:17.050Z,2.50
2019-01-31T09:17:22.634Z,2.56
2019-01-31T09:28:59.232Z,2.74
2019-01-31T09:34:39.448Z,2.85
2019-01-31T09:40:18.980Z,2.94
2019-01-31T09:45:49.622Z,2.97
2019-01-31T09:51:40.450Z,3.08
2019-01-31T09:57:21.753Z,3.07
2019-01-31T10:03:07.120Z,3.12
2019-01-31T10:09:05.608Z,3.21
2019-01-31T10:14:41.606Z,3.36
2019-01-31T10:20:06.776Z,3.45
2019-01-31T10:25:56.310Z,3.50
2019-01-31T10:31:28.214Z,3.58
2019-01-31T10:37:15.709Z,3.62
2019-01-31T10:43:00.140Z,3.70
2019-01-31T10:48:25.072Z,3.83
2019-01-31T10:54:20.725Z,4.00
2019-01-31T11:00:23.440Z,4.60
2019-01-31T11:05:58.981Z,6.36
2019-01-31T11:11:33.026Z,6.69
2019-01-31T11:17:14.139Z,7.61
2019-01-31T11:23:03.169Z,8.20
2019-01-31T11:28:18.364Z,9.74
2019-01-31T11:34:09.956Z,10.07
2019-01-31T11:39:55.036Z,12.18
2019-01-31T11:45:56.497Z,13.48
2019-01-31T11:51:38.498Z,14.31
2019-01-31T11:57:40.149Z,13.96
2019-01-31T12:02:54.694Z,14.33
2019-01-31T12:07:51.980Z,14.97
2019-01-31T12:12:57.504Z,13.57
2019-01-31T12:18:04.465Z,14.81
2019-01-31T12:23:10.715Z,15.11
2019-01-31T12:28:17.174Z,13.00
2019-01-31T12:33:22.428Z,10.64
2019-01-31T12:38:36.479Z,9.31
2019-01-31T12:43:35.532Z,8.81
2019-01-31T12:48:40.730Z,9.01
2019-01-31T12:53:46.082Z,9.64
2019-01-31T12:58:51.423Z,10.66
2019-01-31T13:03:58.161Z,10.62
2019-01-31T13:09:04.773Z,10.99
2019-01-31T13:14:11.550Z,11.30
2019-01-31T13:19:48.581Z,10.77
2019-01-31T13:30:54.853Z,9.27
2019-01-31T13:36:20.178Z,9.46
2019-01-31T13:41:25.624Z,9.75
2019-01-31T13:46:32.773Z,9.38
2019-01-31T13:51:45.665Z,8.67
2019-01-31T13:57:28.069Z,8.15
2019-01-31T14:02:59.526Z,7.68
2019-01-31T14:08:06.266Z,7.18
2019-01-31T14:13:15.251Z,6.76
2019-01-31T14:18:20.840Z,6.53
2019-01-31T14:23:26.083Z,6.41
2019-01-31T14:28:32.364Z,6.35
2019-01-31T14:33:37.648Z,6.18
2019-01-31T14:38:43.175Z,6.17
2019-01-31T14:43:48.481Z,6.14
2019-01-31T14:48:56.206Z,6.10
2019-01-31T14:54:01.882Z,6.02
2019-01-31T14:59:07.582Z,5.92
2019-01-31T15:04:12.811Z,5.86
2019-01-31T15:09:18.071Z,5.81
2019-01-31T15:14:32.023Z,5.73
2019-01-31T15:19:33.130Z,5.76
2019-01-31T15:24:38.316Z,5.70
2019-01-31T15:29:44.751Z,5.59
2019-01-31T15:34:49.923Z,5.50
2019-01-31T15:39:55.331Z,5.42
2019-01-31T15:45:01.888Z,5.30
2019-01-31T15:50:08.764Z,5.26
2019-01-31T15:55:15.941Z,5.12
2019-01-31T16:00:32.951Z,5.02
2019-01-31T16:05:38.232Z,4.91
2019-01-31T16:10:43.728Z,4.78
2019-01-31T16:15:48.985Z,4.66
2019-01-31T16:20:59.264Z,4.62
2019-01-31T16:26:07.676Z,4.58
2019-01-31T16:31:13.090Z,4.50
2019-01-31T16:36:21.706Z,4.47
2019-01-31T16:41:27.984Z,4.38
2019-01-31T16:46:36.313Z,4.31
2019-01-31T16:51:40.808Z,4.31
2019-01-31T16:56:46.178Z,4.28
2019-01-31T17:01:51.504Z,4.32
2019-01-31T17:06:57.124Z,4.33
2019-01-31T17:12:02.330Z,4.30
2019-01-31T17:17:08.650Z,4.24
2019-01-31T17:22:19.513Z,4.21
2019-01-31T17:27:25.513Z,4.22
2019-01-31T17:32:31.780Z,4.19
2019-01-31T17:37:37.227Z,4.17
2019-01-31T17:42:42.983Z,4.25
2019-01-31T17:47:48.577Z,4.22
2019-01-31T17:52:53.865Z,4.13
2019-01-31T17:57:59.174Z,4.04
2019-01-31T18:03:04.578Z,3.96
2019-01-31T18:08:09.988Z,3.87
2019-01-31T18:13:15.945Z,3.74
2019-01-31T18:18:21.385Z,3.73
2019-01-31T18:23:27.194Z,3.68
2019-01-31T18:28:32.559Z,3.66
2019-01-31T18:33:37.961Z,3.57
2019-01-31T18:38:44.570Z,3.52
2019-01-31T18:43:50.338Z,3.52
2019-01-31T18:48:57.538Z,3.52
2019-01-31T18:54:03.052Z,3.46
2019-01-31T18:59:08.221Z,3.37
2019-01-31T19:04:13.887Z,3.31
2019-01-31T19:09:19.243Z,3.32
2019-01-31T19:14:26.051Z,3.29
2019-01-31T19:19:32.359Z,3.24
2019-01-31T19:24:38.214Z,3.16
2019-01-31T19:29:44.418Z,3.20
2019-01-31T19:34:50.018Z,3.13
2019-01-31T19:39:55.378Z,3.08
2019-01-31T19:45:01.672Z,3.01
2019-01-31T19:50:08.479Z,2.97
2019-01-31T19:55:13.832Z,2.95
2019-01-31T20:00:20.617Z,2.93
2019-01-31T20:05:27.140Z,2.84
2019-01-31T20:10:32.379Z,2.81
2019-01-31T20:15:37.526Z,2.74
2019-01-31T20:20:43.033Z,2.70
2019-01-31T20:25:48.550Z,2.69
2019-01-31T20:30:53.868Z,2.68
2019-01-31T20:35:59.450Z,2.68
2019-01-31T20:41:04.922Z,2.66
2019-01-31T20:46:10.177Z,2.59
2019-01-31T20:51:15.462Z,2.53
2019-01-31T20:56:20.839Z,2.51
2019-01-31T21:01:26.101Z,2.51
2019-01-31T21:06:41.091Z,2.47
2019-01-31T21:11:38.138Z,2.40
2019-01-31T21:16:52.599Z,2.37
2019-01-31T21:22:01.122Z,2.29
2019-01-31T21:27:11.570Z,2.33
2019-01-31T21:32:19.746Z,2.29
2019-01-31T21:37:33.814Z,2.28
2019-01-31T21:42:39.107Z,2.26
2019-01-31T21:47:44.325Z,2.29
2019-01-31T21:52:49.494Z,2.20
2019-01-31T21:57:54.607Z,2.21
2019-01-31T22:02:59.882Z,2.22
2019-01-31T22:08:05.182Z,2.20
2019-01-31T22:13:10.355Z,2.15
2019-01-31T22:18:17.894Z,2.09
2019-01-31T22:23:22.340Z,2.12
2019-01-31T22:28:27.587Z,2.12
2019-01-31T22:33:32.811Z,2.07
2019-01-31T22:38:38.051Z,2.06
2019-01-31T22:43:43.173Z,2.03
2019-01-31T22:48:48.586Z,2.02
2019-01-31T22:53:54.023Z,1.97
2019-01-31T22:58:59.181Z,1.94
2019-01-31T23:04:04.956Z,1.89
2019-01-31T23:09:12.667Z,1.85
2019-01-31T23:14:17.955Z,1.76
2019-01-31T23:19:23.299Z,1.74
2019-01-31T23:24:28.450Z,1.73
2019-01-31T23:29:33.663Z,1.79
2019-01-31T23:34:38.802Z,1.74
2019-01-31T23:39:49.009Z,1.73
2019-01-31T23:44:54.141Z,1.69
2019-01-31T23:49:59.217Z,1.63
2019-01-31T23:55:05.073Z,1.61
